createdAt,value
2017-11-13T00:03:01.351Z,78.20
2017-11-13T00:08:03.888Z,78.30
2017-11-13T00:13:06.452Z,78.10
2017-11-13T00:18:09.004Z,78.10
2017-11-13T00:23:11.589Z,78.10
2017-11-13T00:28:14.148Z,77.90
2017-11-13T00:33:16.731Z,78.00
2017-11-13T00:38:20.076Z,78.10
2017-11-13T00:43:22.704Z,78.10
2017-11-13T00:48:26.073Z,77.90
2017-11-13T00:53:29.404Z,78.00
2017-11-13T00:58:31.991Z,78.00
2017-11-13T01:03:35.315Z,78.00
2017-11-13T01:08:37.875Z,78.00
2017-11-13T01:13:40.441Z,77.90
2017-11-13T01:18:43.006Z,77.90
2017-11-13T01:23:45.568Z,77.90
2017-11-13T01:28:48.137Z,77.90
2017-11-13T01:33:50.756Z,77.90
2017-11-13T01:38:53.312Z,77.90
2017-11-13T01:43:56.680Z,78.00
2017-11-13T01:48:59.237Z,77.90
2017-11-13T01:54:01.792Z,77.90
2017-11-13T01:59:04.348Z,77.90
2017-11-13T02:04:06.913Z,77.70
2017-11-13T02:09:10.250Z,77.90
2017-11-13T02:14:12.839Z,77.80
2017-11-13T02:19:16.164Z,78.00
2017-11-13T02:24:18.721Z,77.90
2017-11-13T02:29:21.314Z,77.90
2017-11-13T02:34:23.879Z,77.90
2017-11-13T02:39:27.197Z,78.20
2017-11-13T02:44:29.746Z,78.10
2017-11-13T02:49:32.334Z,78.10
2017-11-13T02:54:34.913Z,78.10
2017-11-13T02:59:37.483Z,78.00
2017-11-13T03:04:40.171Z,78.00
2017-11-13T03:09:42.722Z,78.20
2017-11-13T03:14:45.291Z,78.10
2017-11-13T03:19:47.840Z,78.00
2017-11-13T03:24:50.443Z,78.10
2017-11-13T03:29:53.024Z,78.30
2017-11-13T03:34:55.636Z,78.20
2017-11-13T03:39:58.175Z,78.10
2017-11-13T03:45:00.737Z,78.30
2017-11-13T03:50:03.296Z,78.30
2017-11-13T03:55:05.878Z,78.10
2017-11-13T04:00:09.241Z,78.20
2017-11-13T04:05:11.820Z,78.20
2017-11-13T04:10:14.505Z,78.10
2017-11-13T04:15:17.088Z,78.00
2017-11-13T04:20:19.652Z,78.00
2017-11-13T04:25:22.266Z,78.00
2017-11-13T04:30:24.845Z,78.00
2017-11-13T04:35:27.409Z,78.00
2017-11-13T04:40:29.980Z,78.00
2017-11-13T04:45:32.530Z,78.00
2017-11-13T04:50:35.069Z,78.00
2017-11-13T04:55:37.628Z,78.10
2017-11-13T05:00:40.207Z,78.00
2017-11-13T05:05:42.766Z,78.20
2017-11-13T05:10:45.300Z,78.20
2017-11-13T05:15:47.849Z,78.40
2017-11-13T05:20:50.409Z,78.50
2017-11-13T05:25:52.989Z,78.60
2017-11-13T05:30:56.316Z,78.60
2017-11-13T05:35:58.887Z,78.60
2017-11-13T05:41:01.498Z,78.50
2017-11-13T05:46:04.053Z,78.60
2017-11-13T05:51:06.632Z,78.50
2017-11-13T05:56:09.212Z,78.60
2017-11-13T06:01:11.786Z,78.60
2017-11-13T06:06:14.358Z,78.50
2017-11-13T06:11:16.933Z,78.80
2017-11-13T06:16:19.487Z,78.80
2017-11-13T06:21:22.037Z,78.90
2017-11-13T06:26:24.594Z,78.80
2017-11-13T06:31:27.932Z,78.90
2017-11-13T06:36:30.485Z,78.90
2017-11-13T06:41:33.061Z,79.00
2017-11-13T06:46:35.646Z,79.00
2017-11-13T06:51:38.221Z,78.80
2017-11-13T06:56:41.568Z,78.60
2017-11-13T07:01:44.125Z,78.60
2017-11-13T07:06:46.675Z,78.50
2017-11-13T07:11:49.233Z,78.50
2017-11-13T07:16:51.916Z,78.40
2017-11-13T07:21:54.512Z,78.40
2017-11-13T07:26:57.081Z,78.30
2017-11-13T07:31:59.701Z,78.30
2017-11-13T07:37:02.261Z,78.30
2017-11-13T07:42:04.803Z,78.30
2017-11-13T07:47:07.372Z,78.10
2017-11-13T07:52:09.931Z,78.20
2017-11-13T07:57:12.492Z,78.10
2017-11-13T08:02:15.036Z,78.00
2017-11-13T08:07:18.359Z,78.50
2017-11-13T08:12:21.694Z,78.00
2017-11-13T08:17:24.254Z,77.90
2017-11-13T08:22:26.830Z,78.00
2017-11-13T08:27:29.397Z,78.20
2017-11-13T08:32:31.976Z,77.90
2017-11-13T08:37:34.572Z,78.00
2017-11-13T08:42:37.301Z,77.90
2017-11-13T08:47:39.856Z,77.80
2017-11-13T08:52:42.431Z,77.80
2017-11-13T08:57:44.963Z,77.80
2017-11-13T09:02:47.532Z,77.80
2017-11-13T09:07:50.088Z,77.70
2017-11-13T09:12:52.669Z,77.30
2017-11-13T09:17:55.233Z,77.50
2017-11-13T09:22:57.808Z,77.30
2017-11-13T09:28:00.358Z,77.40
2017-11-13T09:33:02.914Z,77.10
2017-11-13T09:38:05.497Z,76.80
2017-11-13T09:43:08.075Z,76.70
2017-11-13T09:48:11.383Z,76.40
2017-11-13T09:53:14.715Z,76.80
2017-11-13T09:58:17.262Z,76.80
2017-11-13T10:03:19.826Z,77.00
2017-11-13T10:08:23.224Z,76.40
2017-11-13T10:13:25.805Z,76.30
2017-11-13T10:18:28.406Z,76.40
2017-11-13T10:23:30.989Z,75.80
2017-11-13T10:28:33.532Z,75.60
2017-11-13T10:33:36.121Z,74.60
2017-11-13T10:38:38.729Z,75.10
2017-11-13T10:43:41.325Z,74.00
2017-11-13T10:53:41.016Z,73.80
2017-11-13T10:58:43.565Z,72.10
2017-11-13T11:03:46.129Z,72.30
2017-11-13T11:08:48.675Z,73.70
2017-11-13T11:19:34.619Z,72.70
2017-11-13T11:24:37.212Z,73.70
2017-11-13T11:29:45.551Z,75.10
2017-11-13T11:35:04.905Z,74.60
2017-11-13T11:40:07.472Z,75.80
2017-11-13T11:45:12.012Z,74.20
2017-11-13T11:50:14.568Z,73.90
2017-11-13T11:55:27.913Z,73.30
2017-11-13T12:00:30.480Z,71.90
2017-11-13T12:05:33.092Z,73.20
2017-11-13T12:10:35.698Z,72.40
2017-11-13T12:15:38.253Z,73.40
2017-11-13T12:20:40.812Z,73.10
2017-11-13T12:25:43.353Z,73.70
2017-11-13T12:30:45.938Z,72.70
2017-11-13T12:35:48.501Z,72.40
2017-11-13T12:40:51.070Z,72.10
2017-11-13T12:45:53.620Z,71.80
2017-11-13T12:50:56.175Z,70.10
2017-11-13T12:55:58.741Z,72.10
2017-11-13T13:01:01.298Z,72.30
2017-11-13T13:06:03.887Z,71.30
2017-11-13T13:11:06.451Z,71.60
2017-11-13T13:16:09.036Z,71.60
2017-11-13T13:21:11.591Z,71.60
2017-11-13T13:26:14.203Z,71.40
2017-11-13T13:31:16.754Z,71.70
2017-11-13T13:36:19.434Z,71.60
2017-11-13T13:41:22.010Z,71.40
2017-11-13T13:46:24.585Z,71.80
2017-11-13T13:51:27.145Z,71.80
2017-11-13T13:56:29.792Z,71.80
2017-11-13T14:01:32.371Z,71.30
2017-11-13T14:06:34.919Z,69.50
2017-11-13T14:11:37.469Z,69.80
2017-11-13T14:16:40.046Z,69.90
2017-11-13T14:21:43.391Z,70.40
2017-11-13T14:26:45.945Z,70.40
2017-11-13T14:31:48.521Z,70.10
2017-11-13T14:36:51.705Z,69.40
2017-11-13T14:41:54.310Z,69.50
2017-11-13T14:46:56.865Z,69.90
2017-11-13T14:51:59.462Z,70.00
2017-11-13T14:57:02.031Z,70.00
2017-11-13T15:02:04.587Z,70.20
2017-11-13T15:07:07.915Z,69.90
2017-11-13T15:12:10.455Z,69.90
2017-11-13T15:17:13.447Z,69.90
2017-11-13T15:22:16.110Z,70.20
2017-11-13T15:27:18.700Z,70.20
2017-11-13T15:32:21.272Z,70.20
2017-11-13T15:37:25.407Z,70.70
2017-11-13T15:42:29.741Z,70.70
2017-11-13T15:52:43.829Z,71.70
2017-11-13T15:57:46.853Z,72.10
2017-11-13T16:07:56.834Z,72.70
2017-11-13T16:13:00.242Z,72.80
2017-11-13T16:28:17.444Z,73.10
2017-11-13T16:33:23.528Z,73.30
2017-11-13T16:43:34.825Z,73.50
2017-11-13T16:48:38.225Z,73.50
2017-11-13T17:03:55.757Z,73.50
2017-11-13T17:14:09.403Z,73.80
2017-11-13T17:19:14.707Z,73.80
2017-11-13T17:24:20.810Z,73.80
2017-11-13T17:29:28.164Z,74.30
2017-11-13T17:34:34.205Z,74.20
2017-11-13T17:39:37.192Z,74.40
2017-11-13T17:44:41.620Z,74.40
2017-11-13T17:49:45.126Z,74.50
2017-11-13T17:54:48.155Z,75.60
2017-11-13T17:59:52.558Z,74.80
2017-11-13T18:10:03.960Z,75.20
2017-11-13T18:15:08.039Z,74.50
2017-11-13T18:20:12.072Z,74.60
2017-11-13T18:25:15.783Z,74.70
2017-11-13T18:30:20.273Z,74.60
2017-11-13T18:40:33.725Z,74.60
2017-11-13T18:45:38.280Z,74.70
2017-11-13T18:50:41.474Z,74.70
2017-11-13T18:55:45.171Z,75.00
2017-11-13T19:11:02.538Z,75.30
2017-11-13T19:16:05.165Z,75.60
2017-11-13T19:21:07.830Z,76.00
2017-11-13T19:26:10.410Z,75.70
2017-11-13T19:31:13.102Z,75.90
2017-11-13T19:36:15.741Z,76.50
2017-11-13T19:41:18.341Z,75.90
2017-11-13T19:46:21.043Z,76.10
2017-11-13T19:51:23.768Z,76.30
2017-11-13T19:56:26.348Z,76.10
2017-11-13T20:01:28.962Z,76.20
2017-11-13T20:06:33.000Z,76.30
2017-11-13T20:11:35.605Z,76.40
2017-11-13T20:16:38.243Z,76.30
2017-11-13T20:21:40.896Z,76.20
2017-11-13T20:26:43.549Z,76.50
2017-11-13T20:31:46.170Z,76.40
2017-11-13T20:36:48.858Z,76.40
2017-11-13T20:41:51.439Z,76.70
2017-11-13T20:46:54.068Z,77.10
2017-11-13T20:51:56.674Z,76.70
2017-11-13T20:56:59.310Z,76.60
2017-11-13T21:02:01.919Z,76.40
2017-11-13T21:07:04.486Z,76.30
2017-11-13T21:12:07.076Z,76.40
2017-11-13T21:17:09.650Z,76.30
2017-11-13T21:22:12.288Z,76.50
2017-11-13T21:27:14.853Z,76.30
2017-11-13T21:32:17.510Z,76.10
2017-11-13T21:37:20.057Z,76.00
2017-11-13T21:42:22.633Z,76.10
2017-11-13T21:47:25.321Z,75.80
2017-11-13T21:52:27.894Z,75.80
2017-11-13T21:57:31.216Z,75.80
2017-11-13T22:02:33.787Z,75.80
2017-11-13T22:07:36.339Z,75.40
2017-11-13T22:12:38.924Z,75.60
2017-11-13T22:17:41.521Z,75.50
2017-11-13T22:22:44.078Z,75.60
2017-11-13T22:27:46.644Z,75.70
2017-11-13T22:32:49.181Z,75.40
2017-11-13T22:37:51.743Z,75.50
2017-11-13T22:42:54.325Z,75.70
2017-11-13T22:47:56.873Z,75.50
2017-11-13T22:52:59.467Z,75.70
2017-11-13T22:58:02.032Z,75.40
2017-11-13T23:03:04.585Z,75.60
2017-11-13T23:08:07.156Z,75.60
2017-11-13T23:13:09.705Z,75.90
2017-11-13T23:18:13.022Z,75.60
2017-11-13T23:23:15.573Z,75.50
2017-11-13T23:28:18.129Z,75.70
2017-11-13T23:33:21.445Z,75.70
2017-11-13T23:38:24.016Z,75.60
2017-11-13T23:43:26.568Z,75.50
2017-11-13T23:48:29.173Z,75.50
2017-11-13T23:53:31.711Z,75.50
2017-11-13T23:58:34.305Z,75.60
